sensor_id;sensor_type;location;lat;lon;timestamp;pressure;altitude;pressure_sealevel;temperature;humidity
85055;BME280;75391;48.300;16.352;2024-03-06T00:01:59;99859.25;;;10.10;100.00
85055;BME280;75391;48.300;16.352;2024-03-06T00:04:25;99863.34;;;10.58;100.00
85055;BME280;75391;48.300;16.352;2024-03-06T00:06:50;99864.19;;;10.79;100.00
85055;BME280;75391;48.300;16.352;2024-03-06T00:09:16;99870.63;;;10.53;100.00
85055;BME280;75391;48.300;16.352;2024-03-06T00:11:41;99872.63;;;10.67;100.00
85055;BME280;75391;48.300;16.352;2024-03-06T00:14:07;99868.56;;;10.60;100.00
85055;BME280;75391;48.300;16.352;2024-03-06T00:16:32;99870.53;;;10.55;100.00
85055;BME280;75391;48.300;16.352;2024-03-06T00:18:58;99875.16;;;10.09;100.00
85055;BME280;75391;48.300;16.352;2024-03-06T00:21:23;99878.88;;;10.25;100.00
85055;BME280;75391;48.300;16.352;2024-03-06T00:23:49;99877.75;;;10.51;100.00
85055;BME280;75391;48.300;16.352;2024-03-06T00:26:14;99879.88;;;10.63;100.00
85055;BME280;75391;48.300;16.352;2024-03-06T00:28:40;99883.16;;;10.68;100.00
85055;BME280;75391;48.300;16.352;2024-03-06T00:31:05;99876.88;;;10.71;100.00
85055;BME280;75391;48.300;16.352;2024-03-06T00:33:31;99880.44;;;10.70;100.00
85055;BME280;75391;48.300;16.352;2024-03-06T00:35:56;99883.28;;;10.65;100.00
85055;BME280;75391;48.300;16.352;2024-03-06T00:38:22;99885.81;;;10.87;100.00
85055;BME280;75391;48.300;16.352;2024-03-06T00:40:47;99884.84;;;10.30;100.00
85055;BME280;75391;48.300;16.352;2024-03-06T00:43:13;99884.53;;;10.77;100.00
85055;BME280;75391;48.300;16.352;2024-03-06T00:45:39;99890.00;;;10.93;100.00
85055;BME280;75391;48.300;16.352;2024-03-06T00:48:04;99887.91;;;10.60;100.00
85055;BME280;75391;48.300;16.352;2024-03-06T00:50:30;99886.03;;;10.43;100.00
85055;BME280;75391;48.300;16.352;2024-03-06T00:52:56;99891.06;;;10.50;100.00
85055;BME280;75391;48.300;16.352;2024-03-06T00:55:21;99891.25;;;10.45;100.00
85055;BME280;75391;48.300;16.352;2024-03-06T00:57:47;99885.84;;;10.28;100.00
85055;BME280;75391;48.300;16.352;2024-03-06T01:00:12;99895.06;;;10.58;100.00
85055;BME280;75391;48.300;16.352;2024-03-06T01:02:39;99885.31;;;10.18;100.00
85055;BME280;75391;48.300;16.352;2024-03-06T01:05:05;99880.97;;;9.97;100.00
85055;BME280;75391;48.300;16.352;2024-03-06T01:07:31;99876.38;;;9.58;100.00
85055;BME280;75391;48.300;16.352;2024-03-06T01:09:57;99885.06;;;9.61;100.00
85055;BME280;75391;48.300;16.352;2024-03-06T01:12:25;99879.16;;;9.55;100.00
85055;BME280;75391;48.300;16.352;2024-03-06T01:14:51;99875.06;;;9.90;100.00
85055;BME280;75391;48.300;16.352;2024-03-06T01:17:16;99883.13;;;10.07;100.00
85055;BME280;75391;48.300;16.352;2024-03-06T01:19:42;99892.25;;;10.00;100.00
85055;BME280;75391;48.300;16.352;2024-03-06T01:22:07;99882.69;;;9.76;100.00
85055;BME280;75391;48.300;16.352;2024-03-06T01:24:33;99885.75;;;9.87;100.00
85055;BME280;75391;48.300;16.352;2024-03-06T01:26:58;99881.41;;;9.64;100.00
85055;BME280;75391;48.300;16.352;2024-03-06T01:29:24;99888.03;;;10.38;100.00
85055;BME280;75391;48.300;16.352;2024-03-06T01:31:49;99888.16;;;9.93;100.00
85055;BME280;75391;48.300;16.352;2024-03-06T01:34:15;99891.19;;;9.62;100.00
85055;BME280;75391;48.300;16.352;2024-03-06T01:36:41;99898.03;;;9.66;100.00
85055;BME280;75391;48.300;16.352;2024-03-06T01:39:06;99902.34;;;9.69;100.00
85055;BME280;75391;48.300;16.352;2024-03-06T01:41:32;99899.50;;;9.95;100.00
85055;BME280;75391;48.300;16.352;2024-03-06T01:43:57;99889.25;;;9.87;100.00
85055;BME280;75391;48.300;16.352;2024-03-06T01:46:23;99890.69;;;9.74;100.00
85055;BME280;75391;48.300;16.352;2024-03-06T01:48:48;99901.13;;;9.55;100.00
85055;BME280;75391;48.300;16.352;2024-03-06T01:51:14;99897.38;;;9.39;100.00
85055;BME280;75391;48.300;16.352;2024-03-06T01:53:39;99906.00;;;9.21;100.00
85055;BME280;75391;48.300;16.352;2024-03-06T01:56:05;99897.78;;;9.72;100.00
85055;BME280;75391;48.300;16.352;2024-03-06T01:58:32;99902.03;;;9.54;100.00
85055;BME280;75391;48.300;16.352;2024-03-06T02:00:58;99906.84;;;9.45;100.00
85055;BME280;75391;48.300;16.352;2024-03-06T02:03:24;99903.75;;;9.77;100.00
85055;BME280;75391;48.300;16.352;2024-03-06T02:05:52;99907.19;;;9.35;100.00
85055;BME280;75391;48.300;16.352;2024-03-06T02:08:18;99907.22;;;9.57;100.00
85055;BME280;75391;48.300;16.352;2024-03-06T02:10:44;99911.94;;;9.49;100.00
85055;BME280;75391;48.300;16.352;2024-03-06T02:13:11;99912.22;;;9.42;100.00
85055;BME280;75391;48.300;16.352;2024-03-06T02:15:37;99915.53;;;9.01;100.00
85055;BME280;75391;48.300;16.352;2024-03-06T02:18:05;99913.91;;;9.44;100.00
85055;BME280;75391;48.300;16.352;2024-03-06T02:20:31;99917.25;;;9.02;100.00
85055;BME280;75391;48.300;16.352;2024-03-06T02:22:57;99913.41;;;9.11;100.00
85055;BME280;75391;48.300;16.352;2024-03-06T02:25:22;99917.94;;;9.53;100.00
85055;BME280;75391;48.300;16.352;2024-03-06T02:27:48;99914.16;;;9.36;100.00
85055;BME280;75391;48.300;16.352;2024-03-06T02:30:14;99919.59;;;9.10;100.00
85055;BME280;75391;48.300;16.352;2024-03-06T02:32:39;99912.47;;;9.12;100.00
85055;BME280;75391;48.300;16.352;2024-03-06T02:35:05;99905.78;;;9.71;100.00
85055;BME280;75391;48.300;16.352;2024-03-06T02:37:31;99917.34;;;8.99;100.00
85055;BME280;75391;48.300;16.352;2024-03-06T02:39:56;99906.00;;;9.43;100.00
85055;BME280;75391;48.300;16.352;2024-03-06T02:42:21;99919.09;;;9.46;100.00
85055;BME280;75391;48.300;16.352;2024-03-06T02:44:47;99919.13;;;9.22;100.00
85055;BME280;75391;48.300;16.352;2024-03-06T02:47:13;99924.00;;;9.09;100.00
85055;BME280;75391;48.300;16.352;2024-03-06T02:49:38;99929.28;;;9.33;100.00
85055;BME280;75391;48.300;16.352;2024-03-06T02:52:04;99929.69;;;9.68;100.00
85055;BME280;75391;48.300;16.352;2024-03-06T02:54:29;99922.19;;;9.79;100.00
85055;BME280;75391;48.300;16.352;2024-03-06T02:56:54;99927.16;;;9.86;100.00
85055;BME280;75391;48.300;16.352;2024-03-06T02:59:20;99930.13;;;9.79;100.00
85055;BME280;75391;48.300;16.352;2024-03-06T03:01:45;99922.91;;;9.39;100.00
85055;BME280;75391;48.300;16.352;2024-03-06T03:04:11;99927.78;;;9.49;100.00
85055;BME280;75391;48.300;16.352;2024-03-06T03:06:36;99940.13;;;9.25;100.00
85055;BME280;75391;48.300;16.352;2024-03-06T03:09:02;99947.22;;;9.23;100.00
85055;BME280;75391;48.300;16.352;2024-03-06T03:11:28;99937.75;;;9.41;100.00
85055;BME280;75391;48.300;16.352;2024-03-06T03:13:53;99938.19;;;9.52;100.00
85055;BME280;75391;48.300;16.352;2024-03-06T03:16:19;99942.09;;;8.95;100.00
85055;BME280;75391;48.300;16.352;2024-03-06T03:18:45;99935.06;;;9.64;100.00
85055;BME280;75391;48.300;16.352;2024-03-06T03:21:10;99946.13;;;9.29;100.00
85055;BME280;75391;48.300;16.352;2024-03-06T03:23:36;99940.63;;;9.35;100.00
85055;BME280;75391;48.300;16.352;2024-03-06T03:26:02;99941.63;;;9.54;100.00
85055;BME280;75391;48.300;16.352;2024-03-06T03:28:27;99937.00;;;9.61;100.00
85055;BME280;75391;48.300;16.352;2024-03-06T03:30:53;99944.81;;;9.41;100.00
85055;BME280;75391;48.300;16.352;2024-03-06T03:33:18;99946.03;;;9.32;100.00
85055;BME280;75391;48.300;16.352;2024-03-06T03:35:44;99950.38;;;9.33;100.00
85055;BME280;75391;48.300;16.352;2024-03-06T03:38:09;99946.88;;;9.32;100.00
85055;BME280;75391;48.300;16.352;2024-03-06T03:40:34;99940.03;;;9.50;100.00
85055;BME280;75391;48.300;16.352;2024-03-06T03:43:00;99945.50;;;9.46;100.00
85055;BME280;75391;48.300;16.352;2024-03-06T03:45:25;99949.38;;;9.14;100.00
85055;BME280;75391;48.300;16.352;2024-03-06T03:47:51;99949.09;;;8.21;100.00
85055;BME280;75391;48.300;16.352;2024-03-06T03:50:17;99954.91;;;9.06;100.00
85055;BME280;75391;48.300;16.352;2024-03-06T03:52:42;99951.75;;;8.71;100.00
85055;BME280;75391;48.300;16.352;2024-03-06T03:55:08;99953.56;;;8.46;100.00
85055;BME280;75391;48.300;16.352;2024-03-06T03:57:33;99962.59;;;9.12;100.00
85055;BME280;75391;48.300;16.352;2024-03-06T03:59:59;99954.56;;;9.15;100.00
85055;BME280;75391;48.300;16.352;2024-03-06T04:02:24;99958.69;;;9.46;100.00
85055;BME280;75391;48.300;16.352;2024-03-06T04:04:50;99961.56;;;9.16;100.00
85055;BME280;75391;48.300;16.352;2024-03-06T04:07:16;99953.59;;;9.18;100.00
85055;BME280;75391;48.300;16.352;2024-03-06T04:09:41;99961.03;;;9.30;100.00
85055;BME280;75391;48.300;16.352;2024-03-06T04:12:07;99958.59;;;9.49;100.00
85055;BME280;75391;48.300;16.352;2024-03-06T04:14:33;99953.94;;;9.32;100.00
85055;BME280;75391;48.300;16.352;2024-03-06T04:16:58;99954.22;;;9.01;100.00
85055;BME280;75391;48.300;16.352;2024-03-06T04:19:24;99958.31;;;9.33;100.00
85055;BME280;75391;48.300;16.352;2024-03-06T04:21:50;99963.41;;;8.91;100.00
85055;BME280;75391;48.300;16.352;2024-03-06T04:24:16;99965.75;;;8.98;100.00
85055;BME280;75391;48.300;16.352;2024-03-06T04:26:41;99968.28;;;8.76;100.00
85055;BME280;75391;48.300;16.352;2024-03-06T04:29:07;99958.53;;;8.55;100.00
85055;BME280;75391;48.300;16.352;2024-03-06T04:31:32;99973.56;;;8.76;100.00
85055;BME280;75391;48.300;16.352;2024-03-06T04:33:57;99965.69;;;9.00;100.00
85055;BME280;75391;48.300;16.352;2024-03-06T04:36:23;99962.28;;;8.48;100.00
85055;BME280;75391;48.300;16.352;2024-03-06T04:38:48;99973.44;;;9.04;100.00
85055;BME280;75391;48.300;16.352;2024-03-06T04:41:14;99969.06;;;9.03;100.00
85055;BME280;75391;48.300;16.352;2024-03-06T04:43:39;99968.44;;;8.97;100.00
85055;BME280;75391;48.300;16.352;2024-03-06T04:46:05;99976.03;;;8.81;100.00
85055;BME280;75391;48.300;16.352;2024-03-06T04:48:30;99980.75;;;8.71;100.00
85055;BME280;75391;48.300;16.352;2024-03-06T04:50:56;99977.72;;;9.07;100.00
85055;BME280;75391;48.300;16.352;2024-03-06T04:53:21;99976.53;;;9.16;100.00
85055;BME280;75391;48.300;16.352;2024-03-06T04:55:47;99977.13;;;8.75;100.00
85055;BME280;75391;48.300;16.352;2024-03-06T04:58:13;99977.53;;;8.88;100.00
85055;BME280;75391;48.300;16.352;2024-03-06T05:00:38;99977.50;;;8.90;100.00
85055;BME280;75391;48.300;16.352;2024-03-06T05:03:04;99972.25;;;9.13;100.00
85055;BME280;75391;48.300;16.352;2024-03-06T05:05:29;99976.28;;;8.98;100.00
85055;BME280;75391;48.300;16.352;2024-03-06T05:07:55;99979.94;;;8.94;100.00
85055;BME280;75391;48.300;16.352;2024-03-06T05:10:21;99977.63;;;9.10;100.00
85055;BME280;75391;48.300;16.352;2024-03-06T05:12:46;99981.66;;;9.20;100.00
85055;BME280;75391;48.300;16.352;2024-03-06T05:15:12;99986.78;;;9.00;100.00
85055;BME280;75391;48.300;16.352;2024-03-06T05:17:37;99992.78;;;8.80;100.00
85055;BME280;75391;48.300;16.352;2024-03-06T05:20:03;99990.34;;;8.99;100.00
85055;BME280;75391;48.300;16.352;2024-03-06T05:22:29;99991.09;;;9.02;100.00
85055;BME280;75391;48.300;16.352;2024-03-06T05:24:55;99983.56;;;8.92;100.00
85055;BME280;75391;48.300;16.352;2024-03-06T05:27:21;99983.88;;;9.07;100.00
85055;BME280;75391;48.300;16.352;2024-03-06T05:29:46;99982.38;;;9.00;100.00
85055;BME280;75391;48.300;16.352;2024-03-06T05:32:12;99994.91;;;8.94;100.00
85055;BME280;75391;48.300;16.352;2024-03-06T05:34:38;99986.34;;;8.87;100.00
85055;BME280;75391;48.300;16.352;2024-03-06T05:37:04;99986.63;;;9.04;100.00
85055;BME280;75391;48.300;16.352;2024-03-06T05:39:30;99988.50;;;9.01;100.00
85055;BME280;75391;48.300;16.352;2024-03-06T05:41:59;99984.75;;;9.08;100.00
85055;BME280;75391;48.300;16.352;2024-03-06T05:44:25;99976.84;;;8.32;100.00
85055;BME280;75391;48.300;16.352;2024-03-06T05:46:50;99988.28;;;8.83;100.00
85055;BME280;75391;48.300;16.352;2024-03-06T05:49:16;99985.72;;;8.80;100.00
85055;BME280;75391;48.300;16.352;2024-03-06T05:51:41;99993.34;;;8.88;100.00
85055;BME280;75391;48.300;16.352;2024-03-06T05:54:07;99989.75;;;8.91;100.00
85055;BME280;75391;48.300;16.352;2024-03-06T05:56:32;99990.19;;;9.03;100.00
85055;BME280;75391;48.300;16.352;2024-03-06T05:58:58;99988.00;;;9.15;100.00
85055;BME280;75391;48.300;16.352;2024-03-06T06:01:23;100000.94;;;8.97;100.00
85055;BME280;75391;48.300;16.352;2024-03-06T06:03:49;99999.03;;;9.26;100.00
85055;BME280;75391;48.300;16.352;2024-03-06T06:06:15;100002.34;;;9.07;100.00
85055;BME280;75391;48.300;16.352;2024-03-06T06:08:41;100004.53;;;9.20;100.00
85055;BME280;75391;48.300;16.352;2024-03-06T06:11:07;100012.16;;;9.27;100.00
85055;BME280;75391;48.300;16.352;2024-03-06T06:13:32;100008.38;;;9.34;100.00
85055;BME280;75391;48.300;16.352;2024-03-06T06:15:58;100011.94;;;9.33;100.00
85055;BME280;75391;48.300;16.352;2024-03-06T06:18:23;100017.34;;;8.80;100.00
85055;BME280;75391;48.300;16.352;2024-03-06T06:20:49;100020.16;;;8.76;100.00
85055;BME280;75391;48.300;16.352;2024-03-06T06:23:14;100021.56;;;8.86;100.00
85055;BME280;75391;48.300;16.352;2024-03-06T06:25:40;100021.06;;;8.75;100.00
85055;BME280;75391;48.300;16.352;2024-03-06T06:28:05;100030.28;;;9.13;100.00
85055;BME280;75391;48.300;16.352;2024-03-06T06:30:32;100034.03;;;8.81;100.00
85055;BME280;75391;48.300;16.352;2024-03-06T06:32:58;100038.91;;;8.12;100.00
85055;BME280;75391;48.300;16.352;2024-03-06T06:35:23;100036.19;;;8.43;100.00
85055;BME280;75391;48.300;16.352;2024-03-06T06:37:49;100035.50;;;8.90;100.00
85055;BME280;75391;48.300;16.352;2024-03-06T06:40:14;100038.97;;;9.15;100.00
85055;BME280;75391;48.300;16.352;2024-03-06T06:42:48;100040.16;;;8.81;100.00
85055;BME280;75391;48.300;16.352;2024-03-06T06:45:14;100040.34;;;9.02;100.00
85055;BME280;75391;48.300;16.352;2024-03-06T06:47:39;100033.03;;;9.33;100.00
85055;BME280;75391;48.300;16.352;2024-03-06T06:50:05;100031.78;;;9.20;100.00
85055;BME280;75391;48.300;16.352;2024-03-06T06:52:31;100037.44;;;9.33;100.00
85055;BME280;75391;48.300;16.352;2024-03-06T06:54:56;100039.13;;;9.10;100.00
85055;BME280;75391;48.300;16.352;2024-03-06T06:57:22;100040.81;;;9.13;100.00
85055;BME280;75391;48.300;16.352;2024-03-06T06:59:47;100035.00;;;9.03;100.00
85055;BME280;75391;48.300;16.352;2024-03-06T07:02:13;100041.59;;;8.65;100.00
85055;BME280;75391;48.300;16.352;2024-03-06T07:04:38;100044.97;;;8.44;100.00
85055;BME280;75391;48.300;16.352;2024-03-06T07:07:04;100037.09;;;8.69;100.00
85055;BME280;75391;48.300;16.352;2024-03-06T07:09:30;100045.00;;;8.69;100.00
85055;BME280;75391;48.300;16.352;2024-03-06T07:11:55;100044.31;;;9.14;100.00
85055;BME280;75391;48.300;16.352;2024-03-06T07:14:21;100042.19;;;9.23;100.00
85055;BME280;75391;48.300;16.352;2024-03-06T07:16:46;100043.97;;;9.23;100.00
85055;BME280;75391;48.300;16.352;2024-03-06T07:19:12;100044.63;;;9.53;100.00
85055;BME280;75391;48.300;16.352;2024-03-06T07:21:38;100046.91;;;9.39;100.00
85055;BME280;75391;48.300;16.352;2024-03-06T07:24:04;100052.13;;;9.40;100.00
85055;BME280;75391;48.300;16.352;2024-03-06T07:26:32;100048.06;;;8.81;100.00
85055;BME280;75391;48.300;16.352;2024-03-06T07:28:58;100056.31;;;8.97;100.00
85055;BME280;75391;48.300;16.352;2024-03-06T07:31:23;100056.59;;;9.15;100.00
85055;BME280;75391;48.300;16.352;2024-03-06T07:33:49;100056.03;;;9.77;100.00
85055;BME280;75391;48.300;16.352;2024-03-06T07:36:14;100057.72;;;9.79;100.00
85055;BME280;75391;48.300;16.352;2024-03-06T07:38:40;100061.84;;;9.86;100.00
85055;BME280;75391;48.300;16.352;2024-03-06T07:41:05;100068.13;;;9.82;100.00
85055;BME280;75391;48.300;16.352;2024-03-06T07:43:31;100068.31;;;9.78;100.00
85055;BME280;75391;48.300;16.352;2024-03-06T07:45:56;100068.81;;;9.87;100.00
85055;BME280;75391;48.300;16.352;2024-03-06T07:48:22;100066.25;;;9.86;100.00
85055;BME280;75391;48.300;16.352;2024-03-06T07:50:47;100064.78;;;10.01;100.00
85055;BME280;75391;48.300;16.352;2024-03-06T07:53:13;100061.31;;;10.22;100.00
85055;BME280;75391;48.300;16.352;2024-03-06T07:55:39;100070.81;;;10.04;100.00
85055;BME280;75391;48.300;16.352;2024-03-06T07:58:04;100071.00;;;10.00;100.00
85055;BME280;75391;48.300;16.352;2024-03-06T08:00:30;100068.75;;;9.89;100.00
85055;BME280;75391;48.300;16.352;2024-03-06T08:02:56;100081.06;;;10.35;100.00
85055;BME280;75391;48.300;16.352;2024-03-06T08:05:21;100077.50;;;10.13;100.00
85055;BME280;75391;48.300;16.352;2024-03-06T08:07:47;100074.66;;;9.96;100.00
85055;BME280;75391;48.300;16.352;2024-03-06T08:10:12;100078.94;;;9.76;100.00
85055;BME280;75391;48.300;16.352;2024-03-06T08:12:42;100077.66;;;9.40;100.00
85055;BME280;75391;48.300;16.352;2024-03-06T08:15:11;100074.91;;;9.89;100.00
85055;BME280;75391;48.300;16.352;2024-03-06T08:17:42;100078.31;;;9.70;100.00
85055;BME280;75391;48.300;16.352;2024-03-06T08:20:09;100076.69;;;10.34;100.00
85055;BME280;75391;48.300;16.352;2024-03-06T08:22:37;100070.03;;;10.68;100.00
85055;BME280;75391;48.300;16.352;2024-03-06T08:25:07;100071.44;;;10.55;100.00
85055;BME280;75391;48.300;16.352;2024-03-06T08:27:37;100077.19;;;11.07;100.00
85055;BME280;75391;48.300;16.352;2024-03-06T08:30:03;100078.94;;;10.65;100.00
85055;BME280;75391;48.300;16.352;2024-03-06T08:32:31;100081.25;;;10.53;100.00
85055;BME280;75391;48.300;16.352;2024-03-06T08:34:56;100071.75;;;10.89;100.00
85055;BME280;75391;48.300;16.352;2024-03-06T08:37:22;100075.06;;;10.94;100.00
85055;BME280;75391;48.300;16.352;2024-03-06T08:39:47;100076.63;;;10.36;100.00
85055;BME280;75391;48.300;16.352;2024-03-06T08:42:13;100076.75;;;10.97;100.00
85055;BME280;75391;48.300;16.352;2024-03-06T08:44:39;100073.75;;;11.25;100.00
85055;BME280;75391;48.300;16.352;2024-03-06T08:47:04;100073.09;;;11.00;100.00
85055;BME280;75391;48.300;16.352;2024-03-06T08:49:30;100075.94;;;11.15;100.00
85055;BME280;75391;48.300;16.352;2024-03-06T08:51:55;100082.50;;;11.27;100.00
85055;BME280;75391;48.300;16.352;2024-03-06T08:54:21;100074.41;;;11.30;100.00
85055;BME280;75391;48.300;16.352;2024-03-06T08:56:46;100079.84;;;11.66;100.00
85055;BME280;75391;48.300;16.352;2024-03-06T08:59:12;100075.34;;;11.09;100.00
85055;BME280;75391;48.300;16.352;2024-03-06T09:01:37;100078.59;;;11.55;100.00
85055;BME280;75391;48.300;16.352;2024-03-06T09:04:03;100076.94;;;11.13;100.00
85055;BME280;75391;48.300;16.352;2024-03-06T09:06:28;100071.19;;;11.03;100.00
85055;BME280;75391;48.300;16.352;2024-03-06T09:08:54;100072.41;;;11.35;100.00
85055;BME280;75391;48.300;16.352;2024-03-06T09:11:19;100078.19;;;11.24;100.00
85055;BME280;75391;48.300;16.352;2024-03-06T09:13:45;100073.03;;;11.61;100.00
85055;BME280;75391;48.300;16.352;2024-03-06T09:16:10;100076.22;;;11.48;100.00
85055;BME280;75391;48.300;16.352;2024-03-06T09:18:36;100073.66;;;11.86;100.00
85055;BME280;75391;48.300;16.352;2024-03-06T09:21:01;100069.34;;;12.02;100.00
85055;BME280;75391;48.300;16.352;2024-03-06T09:23:27;100071.94;;;11.46;99.96
85055;BME280;75391;48.300;16.352;2024-03-06T09:25:53;100072.88;;;11.45;100.00
85055;BME280;75391;48.300;16.352;2024-03-06T09:28:18;100072.41;;;11.35;100.00
85055;BME280;75391;48.300;16.352;2024-03-06T09:30:44;100069.88;;;11.53;100.00
85055;BME280;75391;48.300;16.352;2024-03-06T09:33:09;100067.47;;;11.86;97.57
85055;BME280;75391;48.300;16.352;2024-03-06T09:35:35;100065.94;;;11.82;94.71
85055;BME280;75391;48.300;16.352;2024-03-06T09:38:00;100064.34;;;11.96;99.06
85055;BME280;75391;48.300;16.352;2024-03-06T09:40:26;100068.16;;;12.10;90.53
85055;BME280;75391;48.300;16.352;2024-03-06T09:42:52;100065.50;;;12.10;87.95
85055;BME280;75391;48.300;16.352;2024-03-06T09:45:18;100065.00;;;11.83;88.41
85055;BME280;75391;48.300;16.352;2024-03-06T09:47:44;100066.94;;;11.59;86.12
85055;BME280;75391;48.300;16.352;2024-03-06T09:50:10;100069.88;;;11.92;85.99
85055;BME280;75391;48.300;16.352;2024-03-06T09:52:40;100066.19;;;12.49;83.96
85055;BME280;75391;48.300;16.352;2024-03-06T09:55:07;100065.22;;;12.16;81.06
85055;BME280;75391;48.300;16.352;2024-03-06T09:57:32;100061.63;;;11.98;79.53
85055;BME280;75391;48.300;16.352;2024-03-06T09:59:58;100061.06;;;12.46;80.89
85055;BME280;75391;48.300;16.352;2024-03-06T10:02:45;100051.47;;;12.61;81.69
85055;BME280;75391;48.300;16.352;2024-03-06T10:05:22;100054.78;;;12.30;79.42
85055;BME280;75391;48.300;16.352;2024-03-06T10:07:51;100059.66;;;12.39;78.08
85055;BME280;75391;48.300;16.352;2024-03-06T10:10:17;100052.19;;;12.65;75.71
85055;BME280;75391;48.300;16.352;2024-03-06T10:12:44;100061.16;;;12.26;76.71
85055;BME280;75391;48.300;16.352;2024-03-06T10:15:09;100052.19;;;12.82;74.60
85055;BME280;75391;48.300;16.352;2024-03-06T10:17:35;100052.56;;;12.40;74.09
85055;BME280;75391;48.300;16.352;2024-03-06T10:20:01;100050.03;;;12.37;75.19
85055;BME280;75391;48.300;16.352;2024-03-06T10:22:27;100055.22;;;12.74;74.34
85055;BME280;75391;48.300;16.352;2024-03-06T10:24:56;100063.19;;;12.74;73.15
85055;BME280;75391;48.300;16.352;2024-03-06T10:27:22;100053.09;;;12.98;71.18
85055;BME280;75391;48.300;16.352;2024-03-06T10:30:03;100054.13;;;12.96;71.24
85055;BME280;75391;48.300;16.352;2024-03-06T10:32:30;100057.63;;;13.14;69.75
85055;BME280;75391;48.300;16.352;2024-03-06T10:34:56;100053.28;;;12.78;69.63
85055;BME280;75391;48.300;16.352;2024-03-06T10:37:22;100065.22;;;12.16;71.58
85055;BME280;75391;48.300;16.352;2024-03-06T10:39:51;100042.84;;;12.75;69.16
85055;BME280;75391;48.300;16.352;2024-03-06T10:42:17;100054.69;;;13.02;70.43
85055;BME280;75391;48.300;16.352;2024-03-06T10:44:52;100046.50;;;12.90;69.25
85055;BME280;75391;48.300;16.352;2024-03-06T10:47:21;100050.09;;;13.23;68.32
85055;BME280;75391;48.300;16.352;2024-03-06T10:49:47;100048.38;;;13.22;66.49
85055;BME280;75391;48.300;16.352;2024-03-06T10:52:14;100052.47;;;13.28;65.40
85055;BME280;75391;48.300;16.352;2024-03-06T10:54:41;100044.47;;;13.29;64.82
85055;BME280;75391;48.300;16.352;2024-03-06T10:57:07;100042.03;;;13.74;65.00
85055;BME280;75391;48.300;16.352;2024-03-06T10:59:34;100042.38;;;13.68;64.60
85055;BME280;75391;48.300;16.352;2024-03-06T11:02:00;100044.97;;;13.19;64.17
85055;BME280;75391;48.300;16.352;2024-03-06T11:04:27;100038.44;;;13.59;65.82
85055;BME280;75391;48.300;16.352;2024-03-06T11:06:53;100042.97;;;13.24;65.18
85055;BME280;75391;48.300;16.352;2024-03-06T11:09:18;100034.66;;;13.47;65.47
85055;BME280;75391;48.300;16.352;2024-03-06T11:11:51;100040.19;;;13.76;63.71
85055;BME280;75391;48.300;16.352;2024-03-06T11:14:17;100040.81;;;13.63;63.17
85055;BME280;75391;48.300;16.352;2024-03-06T11:19:27;100033.75;;;13.31;62.71
85055;BME280;75391;48.300;16.352;2024-03-06T11:21:52;100042.81;;;13.60;63.92
85055;BME280;75391;48.300;16.352;2024-03-06T11:24:22;100029.72;;;13.73;62.68
85055;BME280;75391;48.300;16.352;2024-03-06T11:26:48;100030.41;;;13.76;63.15
85055;BME280;75391;48.300;16.352;2024-03-06T11:29:19;100027.28;;;13.68;62.76
85055;BME280;75391;48.300;16.352;2024-03-06T11:32:02;100023.78;;;14.15;62.97
85055;BME280;75391;48.300;16.352;2024-03-06T11:34:28;100027.13;;;13.55;63.58
85055;BME280;75391;48.300;16.352;2024-03-06T11:36:56;100023.88;;;13.66;63.89
85055;BME280;75391;48.300;16.352;2024-03-06T11:39:22;100021.50;;;13.77;64.55
85055;BME280;75391;48.300;16.352;2024-03-06T11:41:49;100016.41;;;14.04;64.88
85055;BME280;75391;48.300;16.352;2024-03-06T11:44:19;100012.81;;;13.58;64.42
85055;BME280;75391;48.300;16.352;2024-03-06T11:46:46;100019.66;;;13.62;65.39
85055;BME280;75391;48.300;16.352;2024-03-06T11:51:45;100012.38;;;13.81;63.96
85055;BME280;75391;48.300;16.352;2024-03-06T11:54:10;100016.22;;;13.44;64.01
85055;BME280;75391;48.300;16.352;2024-03-06T11:56:39;100004.69;;;13.77;64.38
85055;BME280;75391;48.300;16.352;2024-03-06T11:59:04;100003.16;;;13.88;64.71
85055;BME280;75391;48.300;16.352;2024-03-06T12:01:30;100006.84;;;13.70;64.74
85055;BME280;75391;48.300;16.352;2024-03-06T12:03:56;100006.22;;;13.97;63.95
85055;BME280;75391;48.300;16.352;2024-03-06T12:06:21;100007.66;;;13.55;63.52
85055;BME280;75391;48.300;16.352;2024-03-06T12:08:47;100004.41;;;13.97;64.40
85055;BME280;75391;48.300;16.352;2024-03-06T12:11:12;100010.84;;;13.77;63.46
85055;BME280;75391;48.300;16.352;2024-03-06T12:13:38;100001.16;;;13.92;65.02
85055;BME280;75391;48.300;16.352;2024-03-06T12:16:07;99999.44;;;13.91;64.78
85055;BME280;75391;48.300;16.352;2024-03-06T12:18:33;100001.41;;;13.56;66.52
85055;BME280;75391;48.300;16.352;2024-03-06T12:21:02;100001.84;;;13.64;66.98
85055;BME280;75391;48.300;16.352;2024-03-06T12:23:30;100007.06;;;12.99;68.32
85055;BME280;75391;48.300;16.352;2024-03-06T12:26:09;100003.50;;;12.83;69.31
85055;BME280;75391;48.300;16.352;2024-03-06T12:28:36;100007.84;;;13.01;68.36
85055;BME280;75391;48.300;16.352;2024-03-06T12:31:03;99998.31;;;13.48;67.40
85055;BME280;75391;48.300;16.352;2024-03-06T12:33:29;99998.78;;;13.72;67.29
85055;BME280;75391;48.300;16.352;2024-03-06T12:36:07;99998.25;;;13.97;66.71
85055;BME280;75391;48.300;16.352;2024-03-06T12:38:33;100006.34;;;13.30;69.14
85055;BME280;75391;48.300;16.352;2024-03-06T12:40:59;100007.00;;;13.67;69.99
85055;BME280;75391;48.300;16.352;2024-03-06T12:43:25;99994.34;;;13.39;69.27